Flight Track Log - Related Links

Times and Time Zones

All times are in EDT time to prevent confusion due to time zone crossing. See the UAL4180 flight status page for this flight to view local times or setup timezone preferences in your user account.


Time Position Orientation Groundspeed Altitude Reporting Facility
EDT Latitude Longitude Course Direction KTS MPH feet Rate Location/Type
Fri 08:56:25 AM 41.9000 -87.9000 175° South 196 226 3,500  Level Chicago TRACON
Fri 08:57:53 AM 41.8111 -87.8906 175° South 226 260 6,200 2,000 Climbing Chicago Center
Fri 08:58:55 AM 41.7383 -87.8878 178° South 259 298 8,500 2,146 Climbing Chicago Center
Fri 08:59:56 AM 41.6597 -87.8858 179° South 281 323 10,600 2,244 Climbing Chicago Center
Fri 09:00:58 AM 41.5833 -87.8839 179° South 275 316 13,100 2,244 Climbing Chicago Center
Fri 09:01:59 AM 41.5092 -87.8808 178° South 267 307 15,200 2,049 Climbing Chicago Center
Fri 09:03:01 AM 41.4339 -87.8786 179° South 267 307 17,300 2,032 Climbing Chicago Center
Fri 09:04:03 AM 41.3600 -87.8831 183° South 263 303 19,400 1,512 Climbing Chicago Center
Fri 09:05:04 AM 41.2808 -87.8911 184° South 281 323 20,400 1,073 Climbing Chicago Center
Fri 09:06:06 AM 41.1742 -87.8917 180° South 315 362 21,600 1,073 Climbing Chicago Center
Fri 09:07:07 AM 41.0783 -87.8881 178° South 339 390 22,600 976 Climbing Chicago Center
Fri 09:08:09 AM 40.9789 -87.8853 179° South 355 409 23,600 976 Climbing Chicago Center
Fri 09:09:10 AM 40.8775 -87.8819 179° South 363 418 24,600 927 Climbing Chicago Center
Fri 09:10:12 AM 40.7750 -87.8778 178° South 369 425 25,500 927 Climbing Chicago Center
Fri 09:11:13 AM 40.6719 -87.8758 179° South 369 425 26,500 976 Climbing Chicago Center
Fri 09:12:15 AM 40.5683 -87.8714 178° South 374 430 27,500 919 Climbing Chicago Center
Fri 09:13:17 AM 40.4653 -87.8694 179° South 372 428 28,400 796 Climbing Chicago Center
Fri 09:14:08 AM 40.3603 -87.8639 178° South 372 428 29,000 321 Climbing Indianapolis Center
Fri 09:15:09 AM 40.2508 -87.8625 179° South 381 438 29,000  Level Indianapolis Center
Fri 09:16:11 AM 40.1364 -87.8547 177° South 396 456 29,000  Level Indianapolis Center
Fri 09:17:13 AM 40.0192 -87.8394 174° South 411 473 29,000  Level Indianapolis Center
Fri 09:18:15 AM 39.9006 -87.8131 170° South 423 487 29,000  Level Indianapolis Center
Fri 09:19:17 AM 39.7828 -87.7861 170° South 427 491 29,000  Level Indianapolis Center
Fri 09:20:19 AM 39.6644 -87.7597 170° South 429 494 29,000  Level Indianapolis Center
Fri 09:21:20 AM 39.5219 -87.7261 170° South 431 496 29,000  Level Indianapolis Center
Fri 09:22:22 AM 39.4022 -87.7011 171° South 434 499 29,000  Level Indianapolis Center
Fri 09:23:24 AM 39.2833 -87.6742 170° South 433 498 29,000  Level Indianapolis Center
Fri 09:24:26 AM 39.1653 -87.6472 170° South 430 495 29,000  Level Indianapolis Center
Fri 09:25:28 AM 39.0475 -87.6206 170° South 429 494 29,000  Level Indianapolis Center
Fri 09:26:30 AM 38.9292 -87.5942 170° South 430 495 29,000  Level Indianapolis Center
Fri 09:27:32 AM 38.8108 -87.5689 171° South 431 496 29,000  Level Indianapolis Center
Fri 09:28:34 AM 38.6689 -87.5372 170° South 431 496 29,000  Level Indianapolis Center
Fri 09:29:36 AM 38.5531 -87.5128 171° South 425 489 29,000  Level Indianapolis Center
Fri 09:30:38 AM 38.4372 -87.4861 170° South 424 488 29,000  Level Indianapolis Center
Fri 09:31:40 AM 38.3222 -87.4625 171° South 422 486 29,000  Level Indianapolis Center
Fri 09:32:42 AM 38.2083 -87.4392 171° South 419 482 29,000  Level Indianapolis Center
Fri 09:33:44 AM 38.0717 -87.4083 170° South 418 481 29,000  Level Indianapolis Center
Fri 09:34:46 AM 37.9561 -87.3833 170° South 421 484 29,000  Level Indianapolis Center
Fri 09:35:48 AM 37.8425 -87.3583 170° South 418 481 29,000  Level Indianapolis Center
Fri 09:36:50 AM 37.7192 -87.3339 171° South 418 481 29,000 -677 Level Indianapolis Center
Fri 09:37:52 AM 37.6028 -87.3100 171° South 419 482 27,600 -1,867 Descending Indianapolis Center
Fri 09:38:20 AM 37.5442 -87.2969 170° South 421 484 26,200 -2,930 Descending Memphis Center
Fri 09:38:35 AM 37.5192 -87.2953 177° South 415 478 25,500 -3,100 Descending Memphis Center
Fri 09:39:20 AM 37.4269 -87.2728 169° South 421 484 23,100 -2,852 Descending Memphis Center
Fri 09:39:36 AM 37.3997 -87.2711 177° South 417 480 22,600 -1,400 Descending Memphis Center
Fri 09:40:20 AM 37.3178 -87.2456 166° South 416 479 21,700 -1,200 Descending Memphis Center
Fri 09:40:36 AM 37.2864 -87.2417 174° South 397 457 21,400 -1,200 Descending Memphis Center
Fri 09:41:20 AM 37.2086 -87.2133 164° South 410 472 20,500 -1,180 Descending Memphis Center
Fri 09:41:37 AM 37.1772 -87.2069 171° South 412 474 20,200 -1,100 Descending Memphis Center
Fri 09:42:20 AM 37.0994 -87.1814 165° South 410 472 19,400 -1,082 Descending Memphis Center
Fri 09:42:38 AM 37.0661 -87.1747 171° South 402 463 19,100 -900 Descending Memphis Center
Fri 09:43:20 AM 37.0031 -87.1542 165° South 403 464 18,500 -1,100 Descending Memphis Center
Fri 09:43:38 AM 36.9611 -87.1428 168° South 394 453 18,000 -1,200 Descending Memphis Center
Fri 09:44:20 AM 36.8958 -87.1219 166° South 397 457 17,300 -1,000 Descending Memphis Center
Fri 09:45:20 AM 36.7908 -87.0847 164° South 392 451 16,300 -1,100 Descending Memphis Center
Fri 09:46:20 AM 36.6933 -87.0242 154° Southeast 398 458 15,100 -1,950 Descending Memphis Center
Fri 09:47:20 AM 36.6000 -86.9658 153° Southeast 379 436 12,400 -2,050 Descending Memphis Center
Fri 09:48:20 AM 36.5172 -86.9153 154° Southeast 351 404 11,000 -1,400 Descending Memphis Center
Fri 09:49:20 AM 36.4367 -86.8669 154° Southeast 313 360 9,600 -1,650 Descending Memphis Center
Fri 09:50:20 AM 36.3667 -86.8236 154° Southeast 286 329 7,700 -1,700 Descending Memphis Center
Fri 09:51:20 AM 36.2967 -86.7828 155° Southeast 286 329 6,200 -850 Descending Memphis Center
Fri 09:52:20 AM 36.2353 -86.7522 158° South 278 320 6,000 -550 Descending Memphis Center
Fri 09:53:20 AM 36.1756 -86.7728 196° South 232 267 5,100 -650 Descending Memphis Center
Fri 09:54:20 AM 36.1136 -86.7961 197° South 232 267 4,700 -600 Descending Memphis Center
Fri 09:55:20 AM 36.0569 -86.7806 167° South 202 232 3,900 -950 Descending Memphis Center
Fri 09:56:20 AM 36.0328 -86.7353 123° Southeast 147 169 2,800 -1,150 Descending Memphis Center
Fri 09:57:20 AM 36.0631 -86.7031 41° Northeast 111 128 1,600 -1,050 Descending Memphis Center
Fri 09:58:20 AM 36.1000 -86.6886 18° North 112 129 700 -450 Descending Memphis Center
Fri 09:59:20 AM 36.1225 -86.6672 38° Northeast 112 129 700  Level Memphis Center
Fri 10:01:00 AM 36.1167 -86.6667 North  Level FlightAware Approximate
Fri 10:08:00 AM 36.1245 -86.6782 North  Level Estimated
Fri 10:09:00 AM 36.1245 -86.6782 North  Level Estimated
Fri 10:10:00 AM 36.1245 -86.6782 North  Level Estimated
Fri 10:11:00 AM 36.1245 -86.6782 North  Level Estimated
Fri 10:12:00 AM 36.1245 -86.6782 North  Level Estimated
Fri 10:13:00 AM 36.1245 -86.6782 North  Level Estimated
Fri 10:14:00 AM 36.1245 -86.6782 North  Level Estimated
Fri 10:15:00 AM 36.1245 -86.6782 North  Level Estimated

Login

Don't have an account? Register now (free) for customized features, flight alerts, and more!